Time;durP1;ratioP1;P1;durP2;ratioP2;P2;SDS_P1;SDS_P2;PMS_P1;PMS_P2;Temp;Humidity;BMP_temperature;BMP_pressure;BME280_temperature;BME280_humidity;BME280_pressure;Samples;Min_cycle;Max_cycle;Signal;HPM_P1;HPM_P2
2023/04/24 00:01:54;;;;;;;9.43;7.95;;;;;;;12.44;55.52;94381.88;4227187;28;20051;-62
2023/04/24 00:03:59;;;;;;;10.65;8.05;;;;;;;12.35;55.16;94383.75;4229019;28;20139;-61
2023/04/24 00:06:02;;;;;;;14.00;7.28;;;;;;;12.43;55.00;94388.13;4227815;28;20056;-61
2023/04/24 00:08:04;;;;;;;9.80;7.15;;;;;;;12.54;54.84;94385.06;4226851;28;20039;-59
2023/04/24 00:10:06;;;;;;;11.85;8.20;;;;;;;12.65;54.47;94379.38;4224820;28;20093;-59
2023/04/24 00:12:08;;;;;;;14.77;8.30;;;;;;;12.70;54.52;94378.84;4225383;28;20051;-60
2023/04/24 00:14:10;;;;;;;8.60;7.20;;;;;;;12.75;54.41;94375.66;4224852;28;20055;-61
2023/04/24 00:16:11;;;;;;;12.98;8.30;;;;;;;12.82;53.88;94382.66;4221855;28;20047;-59
2023/04/24 00:18:13;;;;;;;14.13;7.53;;;;;;;12.83;53.85;94375.59;4211750;28;20048;-61
2023/04/24 00:20:15;;;;;;;12.38;8.15;;;;;;;12.86;53.81;94373.41;4221609;28;20047;-61
2023/04/24 00:22:17;;;;;;;11.98;7.75;;;;;;;12.90;53.83;94373.84;4220255;28;20093;-61
2023/04/24 00:24:19;;;;;;;9.90;7.53;;;;;;;12.96;52.94;94370.50;4227329;28;20484;-60
2023/04/24 00:26:20;;;;;;;9.88;7.28;;;;;;;13.01;53.03;94373.41;4222767;28;20055;-63
2023/04/24 00:28:22;;;;;;;13.77;8.40;;;;;;;13.01;52.97;94376.03;4228246;28;20082;-59
2023/04/24 00:30:24;;;;;;;12.57;8.07;;;;;;;13.02;53.01;94382.94;4228098;28;20504;-60
2023/04/24 00:32:25;;;;;;;12.68;8.35;;;;;;;12.47;54.94;94384.94;4216672;28;20506;-59
2023/04/24 00:34:27;;;;;;;16.83;9.40;;;;;;;12.01;56.92;94377.13;4216091;28;20052;-61
2023/04/24 00:36:30;;;;;;;14.48;9.13;;;;;;;11.69;58.92;94378.94;4225072;28;20096;-62
2023/04/24 00:38:32;;;;;;;11.32;8.18;;;;;;;11.82;58.72;94370.50;4203739;28;20489;-61
2023/04/24 00:40:33;;;;;;;12.98;8.25;;;;;;;12.04;57.68;94371.53;4227702;28;20062;-60
2023/04/24 00:42:35;;;;;;;14.73;9.50;;;;;;;11.96;58.33;94366.34;4227211;28;20467;-61
2023/04/24 00:44:37;;;;;;;13.23;8.65;;;;;;;11.63;59.57;94369.16;4227091;28;20054;-60
2023/04/24 00:46:38;;;;;;;13.50;9.35;;;;;;;11.38;60.18;94373.72;4226419;28;20055;-59
2023/04/24 00:48:40;;;;;;;13.90;9.32;;;;;;;11.46;60.24;94359.75;4219963;28;20052;-61
2023/04/24 00:50:42;;;;;;;16.27;9.93;;;;;;;11.57;60.19;94369.88;4212244;28;20043;-59
2023/04/24 00:52:44;;;;;;;16.15;9.85;;;;;;;11.68;60.28;94368.66;4222501;28;20078;-59
2023/04/24 00:54:46;;;;;;;15.77;9.48;;;;;;;11.85;59.83;94371.97;4224187;28;20048;-62
2023/04/24 00:56:48;;;;;;;12.77;9.05;;;;;;;12.00;59.21;94372.88;4220749;28;20413;-60
2023/04/24 00:58:49;;;;;;;11.55;9.18;;;;;;;12.16;58.61;94373.75;4218959;28;20079;-58
2023/04/24 01:00:53;;;;;;;13.45;8.95;;;;;;;12.28;57.87;94365.28;4224835;28;20147;-62
2023/04/24 01:02:55;;;;;;;13.00;8.80;;;;;;;12.41;57.44;94363.84;4224731;28;20105;-62
2023/04/24 01:04:57;;;;;;;12.85;9.02;;;;;;;12.52;57.02;94368.69;4215788;28;20418;-62
2023/04/24 01:06:58;;;;;;;10.85;9.27;;;;;;;12.61;57.35;94364.16;4219687;28;20086;-61
2023/04/24 01:09:00;;;;;;;12.65;9.07;;;;;;;12.54;57.81;94355.34;4214033;28;20493;-62
2023/04/24 01:11:04;;;;;;;18.90;8.88;;;;;;;12.23;58.33;94346.59;4213426;28;20102;-63
2023/04/24 01:13:07;;;;;;;16.75;9.70;;;;;;;12.04;59.39;94347.06;4214880;28;20063;-61
2023/04/24 01:15:09;;;;;;;14.73;9.25;;;;;;;12.04;59.75;94341.81;4215741;28;20056;-62
2023/04/24 01:17:11;;;;;;;11.60;9.30;;;;;;;12.14;60.41;94337.16;4226796;28;20386;-63
2023/04/24 01:19:15;;;;;;;12.32;9.43;;;;;;;12.21;59.91;94348.56;4224701;28;20130;-61
2023/04/24 01:21:17;;;;;;;16.88;10.32;;;;;;;12.30;60.05;94341.44;4226714;28;20055;-62
2023/04/24 01:23:19;;;;;;;14.60;9.07;;;;;;;12.38;59.80;94337.94;4225686;28;20075;-61
2023/04/24 01:25:21;;;;;;;11.73;6.75;;;;;;;12.07;57.88;94336.25;4226927;28;20092;-64
2023/04/24 01:27:23;;;;;;;12.52;6.78;;;;;;;11.73;58.81;94340.06;4223566;28;20048;-61
2023/04/24 01:29:24;;;;;;;11.00;5.95;;;;;;;11.53;58.66;94338.88;4227130;27;20481;-62
2023/04/24 01:31:26;;;;;;;10.13;5.85;;;;;;;11.56;59.30;94336.72;4222423;27;20036;-59
2023/04/24 01:33:28;;;;;;;8.40;6.68;;;;;;;11.69;59.32;94344.03;4224495;28;20421;-60
2023/04/24 01:35:30;;;;;;;8.73;5.15;;;;;;;11.79;58.61;94331.50;4224751;28;20094;-60
2023/04/24 01:37:32;;;;;;;9.27;6.28;;;;;;;11.54;57.96;94324.78;4220479;28;20079;-62
2023/04/24 01:39:34;;;;;;;7.10;5.10;;;;;;;11.21;58.63;94331.03;4221282;28;20048;-61
2023/04/24 01:41:36;;;;;;;9.15;5.70;;;;;;;11.26;58.98;94343.63;4218228;28;20129;-60
2023/04/24 01:43:38;;;;;;;9.30;5.50;;;;;;;11.37;59.77;94335.38;4219496;28;20478;-62
2023/04/24 01:45:39;;;;;;;10.77;6.50;;;;;;;11.53;59.23;94339.72;4208395;28;20161;-61
2023/04/24 01:47:41;;;;;;;10.07;5.82;;;;;;;11.46;57.33;94323.84;4214902;28;20540;-62
2023/04/24 01:49:43;;;;;;;7.03;5.40;;;;;;;11.38;57.77;94328.31;4215123;28;20043;-61
2023/04/24 01:51:46;;;;;;;12.18;6.93;;;;;;;11.42;58.15;94327.81;4212833;28;20508;-60
2023/04/24 01:53:48;;;;;;;6.57;5.55;;;;;;;11.45;57.90;94321.41;4217722;28;20075;-60
2023/04/24 01:55:49;;;;;;;8.75;5.38;;;;;;;11.50;57.51;94324.31;4218560;28;20274;-61
2023/04/24 01:57:52;;;;;;;11.40;5.30;;;;;;;11.41;57.67;94323.53;4218190;28;20139;-60
2023/04/24 01:59:54;;;;;;;10.43;5.23;;;;;;;11.45;57.62;94329.28;4218516;28;20052;-60
2023/04/24 02:01:55;;;;;;;7.53;5.25;;;;;;;11.47;57.03;94325.47;4213196;28;20040;-61
2023/04/24 02:03:57;;;;;;;10.15;5.68;;;;;;;11.50;57.26;94326.94;4212945;28;20048;-61
2023/04/24 02:05:59;;;;;;;6.72;4.95;;;;;;;11.55;56.96;94323.78;4217712;28;20055;-61
2023/04/24 02:08:01;;;;;;;12.07;5.75;;;;;;;11.61;56.90;94330.97;4211663;28;20051;-61
2023/04/24 02:10:03;;;;;;;10.07;5.22;;;;;;;11.61;56.75;94323.09;4217962;28;20048;-61
2023/04/24 02:12:05;;;;;;;8.77;5.43;;;;;;;11.65;56.47;94332.25;4219371;28;20078;-61
2023/04/24 02:14:07;;;;;;;11.50;5.30;;;;;;;11.73;56.91;94326.13;4222303;28;20054;-62
2023/04/24 02:16:08;;;;;;;9.18;5.35;;;;;;;11.80;56.76;94327.88;4219525;28;20100;-61
2023/04/24 02:18:11;;;;;;;9.07;5.32;;;;;;;11.86;56.25;94329.00;4218166;28;20054;-60
2023/04/24 02:20:13;;;;;;;9.25;5.80;;;;;;;11.87;56.11;94328.81;4213838;28;21407;-62
2023/04/24 02:22:15;;;;;;;8.13;5.40;;;;;;;11.57;56.64;94327.06;4214459;28;20600;-62
2023/04/24 02:24:16;;;;;;;9.85;5.53;;;;;;;11.44;57.18;94322.38;4217708;28;20043;-62
2023/04/24 02:26:18;;;;;;;8.38;5.57;;;;;;;11.44;56.63;94325.84;4220500;28;20078;-61
2023/04/24 02:28:20;;;;;;;9.43;5.43;;;;;;;11.14;57.50;94318.78;4222709;28;20062;-62
2023/04/24 02:30:21;;;;;;;8.75;5.88;;;;;;;10.90;58.85;94317.09;4220458;28;20212;-61
2023/04/24 02:32:23;;;;;;;11.50;6.03;;;;;;;10.59;60.02;94326.53;4218955;28;20086;-59
2023/04/24 02:34:25;;;;;;;19.40;10.73;;;;;;;10.51;61.73;94312.63;4223431;28;20036;-61
2023/04/24 02:36:27;;;;;;;13.30;8.50;;;;;;;10.44;62.50;94309.88;4225133;28;20051;-60
2023/04/24 02:38:29;;;;;;;12.55;7.97;;;;;;;10.57;61.56;94302.31;4225612;28;20055;-60
2023/04/24 02:40:30;;;;;;;11.32;7.72;;;;;;;10.53;61.47;94306.25;4209611;28;20413;-61
2023/04/24 02:42:32;;;;;;;12.30;6.68;;;;;;;10.57;61.09;94296.25;4210583;28;20597;-61
2023/04/24 02:44:34;;;;;;;12.02;8.32;;;;;;;10.68;61.26;94298.50;4210933;28;20523;-60
2023/04/24 02:46:36;;;;;;;13.55;8.10;;;;;;;10.84;61.19;94302.84;4212902;28;20066;-59
2023/04/24 02:48:37;;;;;;;9.60;6.22;;;;;;;11.02;59.90;94290.34;4213024;28;20110;-60
2023/04/24 02:50:39;;;;;;;9.90;6.70;;;;;;;11.06;59.05;94286.38;4210704;28;20083;-60
2023/04/24 02:52:41;;;;;;;9.13;6.47;;;;;;;10.96;59.28;94296.25;4210224;28;20052;-59
2023/04/24 02:54:43;;;;;;;14.27;7.72;;;;;;;10.88;59.76;94291.03;4210051;28;20177;-61
2023/04/24 02:56:44;;;;;;;17.25;8.23;;;;;;;10.64;61.31;94291.97;4215165;28;20556;-62
2023/04/24 02:58:46;;;;;;;10.43;7.40;;;;;;;10.63;61.93;94288.53;4218743;28;20058;-61
2023/04/24 03:00:47;;;;;;;11.65;8.20;;;;;;;10.37;62.86;94295.84;4219310;28;20083;-62
2023/04/24 03:02:49;;;;;;;10.85;8.68;;;;;;;10.11;63.10;94298.59;4221792;28;20687;-62
2023/04/24 03:04:51;;;;;;;11.52;8.25;;;;;;;9.99;63.67;94309.41;4227071;28;20539;-59
2023/04/24 03:06:54;;;;;;;16.30;9.00;;;;;;;9.91;64.52;94313.84;4219083;28;20473;-61
2023/04/24 03:08:56;;;;;;;14.90;8.25;;;;;;;10.09;64.17;94306.66;4218626;28;20054;-61
2023/04/24 03:10:58;;;;;;;15.98;9.20;;;;;;;10.34;62.90;94306.63;4225084;28;20051;-60
2023/04/24 03:12:59;;;;;;;13.75;9.90;;;;;;;10.54;62.23;94305.28;4219922;28;20051;-61
2023/04/24 03:15:01;;;;;;;14.90;9.98;;;;;;;10.71;61.86;94306.03;4220205;28;20117;-62
2023/04/24 03:17:03;;;;;;;16.25;9.98;;;;;;;10.80;60.85;94306.81;4216364;28;20044;-60
2023/04/24 03:19:04;;;;;;;15.23;9.55;;;;;;;10.79;61.20;94313.84;4215953;28;20051;-59
2023/04/24 03:21:06;;;;;;;14.15;8.55;;;;;;;10.90;60.83;94312.66;4220089;28;20044;-61
2023/04/24 03:23:08;;;;;;;16.58;9.73;;;;;;;11.00;60.69;94309.84;4216431;28;20128;-61
2023/04/24 03:25:09;;;;;;;11.90;9.20;;;;;;;11.10;60.42;94317.47;4216177;28;20050;-60
2023/04/24 03:27:11;;;;;;;14.55;9.07;;;;;;;11.12;60.37;94308.47;4222281;28;20195;-60
2023/04/24 03:29:12;;;;;;;12.60;8.82;;;;;;;11.16;59.60;94304.50;4228693;28;20052;-60
2023/04/24 03:31:15;;;;;;;12.38;8.38;;;;;;;11.23;59.67;94309.91;4219797;28;20055;-61
2023/04/24 03:33:16;;;;;;;13.05;8.55;;;;;;;11.29;59.55;94314.44;4220656;28;20044;-60
2023/04/24 03:35:18;;;;;;;14.15;8.45;;;;;;;11.35;59.52;94315.56;4220260;28;20096;-60
2023/04/24 03:37:20;;;;;;;10.75;8.60;;;;;;;11.38;59.72;94305.53;4225501;28;20082;-60
2023/04/24 03:39:21;;;;;;;12.60;8.80;;;;;;;11.37;59.45;94309.13;4216179;28;20047;-63
2023/04/24 03:41:23;;;;;;;13.63;9.18;;;;;;;11.38;59.76;94305.53;4228434;28;20054;-60
2023/04/24 03:43:27;;;;;;;14.32;9.00;;;;;;;11.33;59.79;94305.22;4230124;28;20054;-61
2023/04/24 03:45:28;;;;;;;15.55;8.60;;;;;;;11.34;59.76;94306.06;4228753;28;20108;-59
2023/04/24 03:47:30;;;;;;;12.30;9.10;;;;;;;11.39;59.46;94307.16;4230194;28;20406;-61
2023/04/24 03:49:32;;;;;;;14.57;8.52;;;;;;;11.43;59.42;94310.25;4222571;28;20086;-61
2023/04/24 03:51:33;;;;;;;15.63;9.38;;;;;;;11.47;59.68;94312.38;4212494;28;20060;-61
2023/04/24 03:53:35;;;;;;;14.82;8.82;;;;;;;11.50;58.76;94305.94;4213227;28;20055;-60
2023/04/24 03:55:37;;;;;;;20.63;8.95;;;;;;;11.46;58.97;94310.75;4224444;28;20108;-61
2023/04/24 03:57:40;;;;;;;11.82;8.13;;;;;;;11.48;58.26;94306.13;4219833;28;20054;-60
2023/04/24 03:59:42;;;;;;;10.77;8.07;;;;;;;11.58;58.16;94305.09;4220252;28;20350;-60
2023/04/24 04:01:45;;;;;;;13.45;8.32;;;;;;;11.74;57.94;94315.44;4229007;28;20484;-62
2023/04/24 04:03:47;;;;;;;12.35;8.70;;;;;;;12.09;56.97;94310.63;4230122;28;20079;-62
2023/04/24 04:05:49;;;;;;;10.25;8.38;;;;;;;12.14;56.50;94308.28;4218254;28;20059;-61
2023/04/24 04:07:51;;;;;;;10.77;8.25;;;;;;;12.07;56.33;94307.38;4223716;28;20525;-62
2023/04/24 04:09:52;;;;;;;17.38;9.30;;;;;;;11.96;56.97;94313.00;4216501;28;20151;-60
2023/04/24 04:11:54;;;;;;;14.18;8.10;;;;;;;11.97;56.75;94312.84;4224697;28;20501;-61
2023/04/24 04:13:56;;;;;;;9.57;7.20;;;;;;;12.01;56.55;94310.69;4218368;28;20044;-60
2023/04/24 04:15:58;;;;;;;13.00;8.05;;;;;;;11.93;56.92;94308.94;4215281;28;20055;-61
2023/04/24 04:17:59;;;;;;;12.05;7.93;;;;;;;11.95;56.47;94300.91;4212242;28;20044;-61
2023/04/24 04:20:03;;;;;;;13.27;7.32;;;;;;;11.97;56.28;94304.97;4216796;28;20117;-61
2023/04/24 04:22:07;;;;;;;12.57;8.00;;;;;;;11.99;56.57;94308.25;4215359;28;20096;-60
2023/04/24 04:24:09;;;;;;;;;;;;;;;12.04;56.29;94313.75;4211972;28;20078;-62
2023/04/24 04:26:12;;;;;;;9.95;7.35;;;;;;;12.09;55.92;94313.25;4215208;28;19970;-61
2023/04/24 04:28:13;;;;;;;11.55;7.40;;;;;;;12.09;55.87;94315.88;4225720;28;20055;-61
2023/04/24 04:30:15;;;;;;;10.20;7.55;;;;;;;12.05;56.05;94314.59;4228013;28;20104;-61
2023/04/24 04:32:17;;;;;;;11.93;8.05;;;;;;;12.06;56.27;94318.84;4221644;28;20043;-61
2023/04/24 04:34:19;;;;;;;14.43;8.50;;;;;;;11.98;56.41;94317.13;4226710;28;20048;-61
2023/04/24 04:36:21;;;;;;;15.32;9.25;;;;;;;11.74;57.10;94320.69;4227187;28;20770;-60
2023/04/24 04:38:22;;;;;;;12.90;8.68;;;;;;;11.39;58.32;94324.72;4215083;28;20135;-61
2023/04/24 04:40:24;;;;;;;15.23;9.45;;;;;;;11.26;58.96;94328.72;4223127;28;20051;-61
2023/04/24 04:42:26;;;;;;;20.23;9.57;;;;;;;10.87;60.06;94339.22;4214498;28;20097;-60
2023/04/24 04:44:28;;;;;;;18.55;9.88;;;;;;;10.71;61.33;94339.25;4228247;28;20051;-61
2023/04/24 04:46:32;;;;;;;15.65;9.60;;;;;;;10.78;61.18;94341.03;4227338;28;20120;-60
2023/04/24 04:48:34;;;;;;;18.55;9.05;;;;;;;10.90;60.64;94338.88;4226000;28;20047;-61
2023/04/24 04:50:36;;;;;;;15.13;9.23;;;;;;;11.07;60.55;94340.44;4225893;28;20051;-59
2023/04/24 04:52:38;;;;;;;20.38;9.63;;;;;;;11.28;59.82;94345.09;4225029;28;20055;-60
2023/04/24 04:54:39;;;;;;;14.20;9.40;;;;;;;11.48;58.76;94340.22;4222136;28;20081;-64
2023/04/24 04:56:41;;;;;;;13.27;9.63;;;;;;;11.64;58.91;94352.44;4225144;28;20583;-62
2023/04/24 04:58:43;;;;;;;16.80;8.20;;;;;;;11.60;56.73;94342.47;4220589;28;20100;-63
2023/04/24 05:00:44;;;;;;;13.10;6.20;;;;;;;11.39;55.76;94343.06;4217867;28;20048;-65
2023/04/24 05:02:46;;;;;;;11.93;5.55;;;;;;;11.20;55.89;94350.38;4216136;28;20047;-62
2023/04/24 05:04:48;;;;;;;10.98;5.82;;;;;;;10.94;56.67;94344.59;4218963;28;21722;-62
2023/04/24 05:06:51;;;;;;;8.77;5.47;;;;;;;10.68;56.91;94353.53;4217670;28;20043;-61
2023/04/24 05:08:56;;;;;;;7.60;5.60;;;;;;;10.64;57.29;94355.66;4219468;28;20055;-60
2023/04/24 05:10:58;;;;;;;10.93;5.53;;;;;;;10.79;57.13;94349.72;4212032;28;20040;-61
2023/04/24 05:13:00;;;;;;;13.60;4.97;;;;;;;11.03;57.07;94347.03;4212871;28;20526;-61
2023/04/24 05:15:03;;;;;;;9.13;5.28;;;;;;;11.31;56.33;94341.28;4218545;28;20254;-60
2023/04/24 05:17:04;;;;;;;10.95;5.15;;;;;;;11.38;54.81;94344.03;4221734;28;20043;-61
2023/04/24 05:19:06;;;;;;;9.73;5.18;;;;;;;11.40;54.99;94345.53;4220997;27;20052;-61
2023/04/24 05:21:08;;;;;;;14.23;5.55;;;;;;;11.44;54.85;94341.56;4218027;28;20048;-62
2023/04/24 05:23:10;;;;;;;12.52;5.78;;;;;;;11.53;55.17;94342.34;4219035;28;20062;-61
2023/04/24 05:25:12;;;;;;;10.77;5.65;;;;;;;11.63;55.25;94345.53;4222347;28;20104;-63
2023/04/24 05:27:13;;;;;;;9.23;5.65;;;;;;;11.82;56.27;94340.81;4224464;28;20549;-61
2023/04/24 05:29:15;;;;;;;12.77;5.60;;;;;;;12.00;54.75;94343.16;4226232;28;20059;-64
2023/04/24 05:31:17;;;;;;;10.63;5.75;;;;;;;12.10;54.03;94346.38;4224221;28;20171;-63
2023/04/24 05:33:19;;;;;;;11.50;5.40;;;;;;;12.21;53.80;94338.06;4227713;28;20382;-64
2023/04/24 05:35:21;;;;;;;9.23;5.93;;;;;;;12.36;54.43;94337.28;4228730;28;20108;-62
2023/04/24 05:37:23;;;;;;;13.43;7.72;;;;;;;12.46;53.70;94343.91;4223850;28;20141;-63
2023/04/24 05:39:24;;;;;;;10.98;6.60;;;;;;;12.53;52.95;94349.28;4226759;28;20513;-61
2023/04/24 05:41:26;;;;;;;11.93;6.57;;;;;;;12.57;52.88;94347.91;4226841;28;20473;-64
2023/04/24 05:43:28;;;;;;;11.32;5.95;;;;;;;12.61;52.35;94349.19;4227104;28;20044;-62
2023/04/24 05:45:30;;;;;;;10.77;6.35;;;;;;;12.64;52.42;94350.66;4222906;28;20074;-62
2023/04/24 05:47:31;;;;;;;12.18;5.90;;;;;;;12.68;52.70;94357.97;4226857;28;20051;-65
2023/04/24 05:49:33;;;;;;;10.98;6.28;;;;;;;12.77;52.35;94342.13;4219454;28;20060;-62
2023/04/24 05:51:35;;;;;;;11.73;6.20;;;;;;;12.88;52.03;94345.13;4219607;28;20070;-62
2023/04/24 05:53:36;;;;;;;13.25;6.45;;;;;;;13.03;52.17;94341.66;4216006;28;20048;-63
2023/04/24 05:55:38;;;;;;;11.18;6.30;;;;;;;13.07;51.54;94341.13;4211088;28;20066;-63
2023/04/24 05:57:40;;;;;;;8.60;6.07;;;;;;;13.08;50.73;94339.31;4212041;28;20088;-62
2023/04/24 05:59:41;;;;;;;10.63;6.32;;;;;;;13.02;51.17;94343.50;4214000;28;20047;-63
2023/04/24 06:01:44;;;;;;;13.85;6.72;;;;;;;12.92;51.40;94342.94;4223094;28;20067;-63
2023/04/24 06:03:46;;;;;;;13.45;6.50;;;;;;;12.96;51.34;94343.41;4217866;28;20128;-64
2023/04/24 06:05:50;;;;;;;12.07;7.03;;;;;;;13.05;51.50;94342.31;4220892;28;20040;-63
2023/04/24 06:07:51;;;;;;;;;;;;;;;13.20;50.93;94350.19;4225372;28;20443;-61
2023/04/24 06:09:53;;;;;;;14.50;6.72;;;;;;;13.38;51.10;94344.53;4223054;28;20002;-62
2023/04/24 06:11:56;;;;;;;12.20;7.10;;;;;;;13.46;50.85;94339.19;4219630;28;20483;-64
2023/04/24 06:13:58;;;;;;;13.65;7.60;;;;;;;13.55;50.75;94340.72;4224324;28;20051;-62
2023/04/24 06:15:59;;;;;;;14.27;7.43;;;;;;;13.64;49.77;94336.97;4215883;28;20117;-63
2023/04/24 06:18:01;;;;;;;11.95;7.15;;;;;;;13.58;49.85;94334.25;4221138;28;20127;-62
2023/04/24 06:20:05;;;;;;;11.20;7.68;;;;;;;13.47;50.23;94332.94;4222177;28;20623;-63
2023/04/24 06:22:07;;;;;;;12.15;7.38;;;;;;;13.14;50.73;94346.44;4215540;28;20121;-63
2023/04/24 06:24:14;;;;;;;10.98;6.20;;;;;;;12.96;51.19;94338.97;4225409;28;20082;-63
2023/04/24 06:26:16;;;;;;;11.73;7.45;;;;;;;12.97;51.81;94343.22;4220683;27;20048;-63
2023/04/24 06:28:18;;;;;;;15.07;7.40;;;;;;;13.00;51.62;94345.47;4218997;27;20051;-62
2023/04/24 06:30:19;;;;;;;12.68;7.57;;;;;;;13.02;51.57;94347.94;4219164;28;20039;-63
2023/04/24 06:32:22;;;;;;;15.13;7.88;;;;;;;12.87;52.08;94343.50;4219198;28;20541;-63
2023/04/24 06:34:24;;;;;;;13.18;7.50;;;;;;;12.95;51.92;94339.97;4221024;28;20139;-62
2023/04/24 06:36:26;;;;;;;16.40;7.35;;;;;;;12.91;52.05;94343.94;4216038;28;20120;-64
2023/04/24 06:38:29;;;;;;;9.43;7.22;;;;;;;13.10;51.97;94340.75;4226498;28;20070;-61
2023/04/24 06:40:31;;;;;;;11.65;7.00;;;;;;;13.03;52.11;94341.66;4213090;28;20048;-63
2023/04/24 06:42:33;;;;;;;13.63;6.82;;;;;;;12.98;52.03;94346.66;4220170;28;20059;-61
2023/04/24 06:44:40;;;;;;;14.15;8.20;;;;;;;13.05;52.27;94351.00;4217541;28;20207;-63
2023/04/24 06:46:42;;;;;;;11.85;7.88;;;;;;;13.04;52.27;94352.00;4215797;28;20105;-64
2023/04/24 06:48:44;;;;;;;14.32;7.97;;;;;;;13.05;51.76;94351.00;4220064;28;20080;-64
2023/04/24 06:50:46;;;;;;;10.18;8.25;;;;;;;13.08;51.98;94349.84;4214892;28;20057;-62
2023/04/24 06:52:48;;;;;;;11.45;7.72;;;;;;;13.29;51.53;94352.56;4219323;28;20577;-64
2023/04/24 06:54:50;;;;;;;11.60;7.82;;;;;;;13.54;50.90;94351.41;4220090;28;20052;-64
2023/04/24 06:56:52;;;;;;;12.88;7.20;;;;;;;13.78;50.59;94337.09;4216202;28;20110;-64
2023/04/24 06:58:53;;;;;;;15.63;7.68;;;;;;;14.06;50.21;94337.16;4209871;28;20097;-63
2023/04/24 07:00:55;;;;;;;18.35;7.53;;;;;;;14.31;49.93;94330.47;4215153;28;20107;-64
2023/04/24 07:02:57;;;;;;;14.15;8.88;;;;;;;14.51;49.65;94333.25;4216327;28;20113;-61
2023/04/24 07:04:59;;;;;;;13.10;8.13;;;;;;;14.30;48.85;94334.13;4212458;28;20487;-63
2023/04/24 07:07:01;;;;;;;11.60;8.20;;;;;;;14.08;49.10;94330.69;4213706;28;20048;-61
2023/04/24 07:09:03;;;;;;;14.05;9.02;;;;;;;14.29;49.03;94337.75;4201721;28;20405;-62
2023/04/24 07:11:05;;;;;;;16.85;8.85;;;;;;;14.34;49.03;94330.06;4226090;28;20043;-63
2023/04/24 07:13:08;;;;;;;13.70;7.68;;;;;;;14.57;48.86;94333.53;4226588;28;20044;-64
2023/04/24 07:15:10;;;;;;;10.50;7.68;;;;;;;14.81;48.45;94319.06;4224725;28;20047;-61
2023/04/24 07:17:13;;;;;;;14.80;8.00;;;;;;;15.03;47.46;94331.16;4225738;28;20136;-62
2023/04/24 07:19:14;;;;;;;14.55;8.40;;;;;;;15.19;47.07;94323.94;4225868;28;20086;-62
2023/04/24 07:21:16;;;;;;;14.80;8.73;;;;;;;14.89;47.38;94324.19;4224571;28;20127;-62
2023/04/24 07:23:19;;;;;;;14.38;8.75;;;;;;;14.27;48.95;94323.94;4225280;28;20048;-63
2023/04/24 07:25:20;;;;;;;13.55;8.40;;;;;;;14.25;49.05;94328.59;4226949;28;20602;-64
2023/04/24 07:27:22;;;;;;;17.33;7.95;;;;;;;13.87;49.64;94313.09;4222654;28;20485;-64
2023/04/24 07:29:24;;;;;;;11.93;7.65;;;;;;;13.95;50.03;94321.84;4219634;28;20070;-62
2023/04/24 07:31:26;;;;;;;11.30;8.23;;;;;;;14.23;49.78;94309.53;4212101;28;20116;-64
2023/04/24 07:33:27;;;;;;;11.43;7.80;;;;;;;14.47;49.31;94310.91;4218564;28;20040;-64
2023/04/24 07:35:29;;;;;;;13.20;8.68;;;;;;;14.53;49.03;94314.63;4222073;28;20047;-64
2023/04/24 07:37:31;;;;;;;12.45;8.68;;;;;;;14.87;48.87;94313.03;4221491;28;20047;-64
2023/04/24 07:39:33;;;;;;;11.00;7.80;;;;;;;15.08;47.62;94307.66;4222201;28;20422;-64
2023/04/24 07:41:34;;;;;;;12.50;7.40;;;;;;;15.10;47.37;94308.28;4214727;28;20124;-63
2023/04/24 07:43:36;;;;;;;10.82;6.43;;;;;;;14.87;47.89;94313.84;4222428;28;20085;-64
2023/04/24 07:45:39;;;;;;;11.02;6.43;;;;;;;14.81;48.45;94304.06;4220910;28;20071;-63
2023/04/24 07:47:43;;;;;;;15.63;6.38;;;;;;;15.06;47.57;94300.97;4208473;28;20040;-66
2023/04/24 07:49:45;;;;;;;7.82;6.53;;;;;;;15.30;47.39;94302.25;4209915;28;20470;-65
2023/04/24 07:51:47;;;;;;;9.73;5.93;;;;;;;15.31;47.01;94295.97;4211760;28;20130;-64
2023/04/24 07:53:48;;;;;;;10.32;6.40;;;;;;;15.40;46.91;94297.44;4219728;28;20058;-65
2023/04/24 07:55:50;;;;;;;10.82;7.15;;;;;;;15.36;46.96;94298.84;4219444;28;20059;-64
2023/04/24 07:57:52;;;;;;;8.55;6.90;;;;;;;15.31;46.98;94290.69;4223268;28;20085;-64
2023/04/24 07:59:54;;;;;;;12.65;6.15;;;;;;;15.46;46.84;94293.97;4228956;28;20312;-66
2023/04/24 08:01:56;;;;;;;8.73;6.20;;;;;;;15.71;46.64;94293.44;4226336;28;20176;-66
2023/04/24 08:03:57;;;;;;;10.88;6.18;;;;;;;16.01;46.08;94290.47;4222859;28;20047;-64
2023/04/24 08:05:59;;;;;;;9.70;6.50;;;;;;;16.26;45.38;94291.47;4226490;28;20210;-63
2023/04/24 08:08:01;;;;;;;11.57;6.05;;;;;;;16.34;45.20;94296.53;4227341;28;20554;-63
2023/04/24 08:10:04;;;;;;;6.63;5.65;;;;;;;16.52;45.35;94285.34;4228800;28;20506;-65
2023/04/24 08:12:06;;;;;;;7.93;5.75;;;;;;;16.67;44.74;94285.13;4226463;27;20048;-63
2023/04/24 08:14:07;;;;;;;9.32;6.20;;;;;;;16.31;44.81;94283.75;4213504;28;20074;-62
2023/04/24 08:16:09;;;;;;;8.10;6.07;;;;;;;16.43;45.27;94283.91;4222702;28;20106;-63
2023/04/24 08:18:13;;;;;;;9.55;6.50;;;;;;;16.49;44.84;94284.94;4217397;28;20048;-63
2023/04/24 08:20:15;;;;;;;8.07;6.35;;;;;;;16.70;44.72;94276.78;4225924;28;20170;-63
2023/04/24 08:22:17;;;;;;;12.23;6.88;;;;;;;16.87;44.14;94281.66;4212222;28;20051;-62
2023/04/24 08:24:19;;;;;;;13.73;7.05;;;;;;;16.96;43.93;94275.91;4213165;28;20044;-62
2023/04/24 08:26:20;;;;;;;10.05;6.95;;;;;;;16.99;43.98;94272.88;4215764;28;20141;-61
2023/04/24 08:28:22;;;;;;;10.52;6.70;;;;;;;17.14;44.27;94275.25;4228655;28;20568;-62
2023/04/24 08:30:23;;;;;;;14.63;7.00;;;;;;;17.33;44.12;94281.47;4228773;28;20048;-62
2023/04/24 08:32:28;;;;;;;10.77;7.10;;;;;;;17.41;43.28;94277.78;4221620;28;20051;-61
2023/04/24 08:34:30;;;;;;;46.97;25.35;;;;;;;17.53;43.05;94265.50;4223230;28;20044;-62
2023/04/24 08:36:32;;;;;;;12.10;6.95;;;;;;;17.53;43.14;94262.84;4220773;28;20071;-64
2023/04/24 08:38:47;;;;;;;12.40;7.05;;;;;;;17.66;42.93;94254.00;4225412;28;20043;-64
2023/04/24 08:40:49;;;;;;;8.75;6.78;;;;;;;17.26;43.63;94261.34;4214117;28;20078;-63
2023/04/24 08:42:53;;;;;;;10.95;7.50;;;;;;;17.29;44.04;94252.97;4226993;28;20085;-65
2023/04/24 08:44:56;;;;;;;12.02;7.40;;;;;;;17.52;43.75;94253.25;4218921;28;20406;-63
2023/04/24 08:46:58;;;;;;;12.50;7.65;;;;;;;17.73;43.26;94244.16;4224654;28;20521;-61
2023/04/24 08:49:00;;;;;;;11.13;6.50;;;;;;;17.92;43.21;94244.28;4227193;28;20116;-62
2023/04/24 08:51:02;;;;;;;11.48;7.03;;;;;;;17.57;42.53;94247.31;4217451;28;20051;-61
2023/04/24 08:53:04;;;;;;;12.88;7.03;;;;;;;17.23;43.38;94246.72;4222748;28;20351;-60
2023/04/24 08:55:06;;;;;;;11.02;6.47;;;;;;;17.30;43.28;94257.25;4217024;28;20481;-64
2023/04/24 08:57:11;;;;;;;16.95;6.15;;;;;;;17.32;43.40;94250.72;4207678;28;20521;-63
2023/04/24 08:59:13;;;;;;;12.25;7.03;;;;;;;17.67;42.92;94234.44;4216308;28;20109;-62
2023/04/24 09:01:15;;;;;;;8.98;6.25;;;;;;;17.98;42.40;94233.63;4218416;28;20054;-63
2023/04/24 09:03:16;;;;;;;9.43;6.60;;;;;;;18.12;41.50;94229.03;4225908;28;20067;-62
2023/04/24 09:05:21;;;;;;;9.63;6.40;;;;;;;18.38;41.25;94217.38;4228599;28;20496;-61
2023/04/24 09:07:25;;;;;;;19.83;7.03;;;;;;;18.29;41.45;94223.97;4226519;28;20043;-62
2023/04/24 09:09:30;;;;;;;9.43;6.47;;;;;;;18.10;41.45;94212.53;4228185;28;20088;-61
2023/04/24 09:11:35;;;;;;;10.05;6.13;;;;;;;18.17;41.86;94215.13;4216298;28;20523;-60
2023/04/24 09:13:36;;;;;;;10.75;6.78;;;;;;;18.15;41.71;94212.66;4213380;28;20044;-63
2023/04/24 09:15:39;;;;;;;10.98;6.03;;;;;;;18.25;41.75;94209.53;4228286;28;20044;-62
2023/04/24 09:17:41;;;;;;;10.98;6.63;;;;;;;18.33;41.60;94216.41;4227825;28;20742;-60
2023/04/24 09:19:43;;;;;;;10.57;6.43;;;;;;;18.34;41.40;94207.41;4227670;28;20079;-62
2023/04/24 09:21:46;;;;;;;7.70;6.03;;;;;;;18.16;41.30;94201.06;4224557;28;20533;-62
2023/04/24 09:23:57;;;;;;;11.15;5.15;;;;;;;17.74;42.47;94208.69;4222652;28;20295;-62
2023/04/24 09:26:01;;;;;;;22.95;7.28;;;;;;;17.92;43.05;94194.75;4214764;28;20048;-62
2023/04/24 09:28:04;;;;;;;13.00;5.80;;;;;;;18.11;42.29;94192.13;4226553;28;20381;-60
2023/04/24 09:30:07;;;;;;;11.25;5.82;;;;;;;18.35;41.83;94193.16;4227969;28;20047;-61